createdAt,value
2022-10-26T03:55:52.854Z,100948.26
2022-10-26T03:59:16.408Z,100945.35
2022-10-26T04:02:39.899Z,100948.30
2022-10-26T04:06:03.751Z,100945.49
2022-10-26T04:09:27.399Z,100947.71
2022-10-26T04:12:50.846Z,100948.02
2022-10-26T04:16:14.093Z,100948.48
2022-10-26T04:19:37.409Z,100946.88
2022-10-26T04:23:02.250Z,100947.85
2022-10-26T04:26:25.601Z,100949.52
2022-10-26T04:29:48.935Z,100949.99
2022-10-26T04:33:12.155Z,100946.77
2022-10-26T04:36:35.683Z,100947.86
2022-10-26T04:39:59.030Z,100948.79
2022-10-26T04:43:22.339Z,100951.58
2022-10-26T04:46:46.050Z,100951.13
2022-10-26T04:50:11.854Z,100955.71
2022-10-26T04:53:35.750Z,100953.85
2022-10-26T04:56:59.224Z,100951.48
2022-10-26T05:00:22.953Z,100954.50
2022-10-26T05:03:50.157Z,100955.38
2022-10-26T05:07:13.492Z,100952.64
2022-10-26T05:10:36.874Z,100954.10
2022-10-26T05:14:00.143Z,100960.77
2022-10-26T05:17:23.428Z,100963.40
2022-10-26T05:20:49.339Z,100966.35
2022-10-26T05:24:12.852Z,100965.31
2022-10-26T05:27:36.192Z,100963.61
2022-10-26T05:30:59.737Z,100965.64
2022-10-26T05:34:23.563Z,100962.48
2022-10-26T05:37:47.128Z,100972.52
2022-10-26T05:41:10.525Z,100972.14
2022-10-26T05:44:33.779Z,100970.91
2022-10-26T05:47:59.969Z,100975.27
2022-10-26T05:51:25.889Z,100984.15
2022-10-26T05:54:49.496Z,100982.66
2022-10-26T05:58:14.356Z,100984.84
2022-10-26T06:01:51.878Z,100989.17
2022-10-26T06:05:22.543Z,100991.47
2022-10-26T06:08:46.884Z,100995.09
2022-10-26T06:12:14.505Z,101000.84
2022-10-26T06:15:54.580Z,101005.21
2022-10-26T06:19:33.412Z,101003.67
2022-10-26T06:23:10.153Z,101007.05
2022-10-26T06:26:42.864Z,101018.44
2022-10-26T06:30:09.482Z,101023.88
2022-10-26T06:33:33.536Z,101029.52
2022-10-26T06:37:00.606Z,101030.62
2022-10-26T06:40:25.438Z,101031.23
2022-10-26T06:43:50.093Z,101032.80
2022-10-26T06:47:21.273Z,101030.20
2022-10-26T06:50:51.670Z,101034.70
2022-10-26T06:54:23.074Z,101031.93
2022-10-26T06:57:47.607Z,101037.09
2022-10-26T07:01:12.519Z,101039.33
2022-10-26T07:04:36.390Z,101047.34
2022-10-26T07:07:59.784Z,101051.86
2022-10-26T07:11:23.119Z,101050.61
2022-10-26T07:14:46.431Z,101044.83
2022-10-26T07:18:10.073Z,101048.38
2022-10-26T07:21:33.928Z,101046.36
2022-10-26T07:25:00.559Z,101048.88
2022-10-26T07:28:26.348Z,101056.59
2022-10-26T07:31:50.174Z,101054.20
2022-10-26T07:35:13.991Z,101056.38
2022-10-26T07:38:37.490Z,101051.91
2022-10-26T07:42:01.093Z,101052.92
2022-10-26T07:45:24.736Z,101054.34
2022-10-26T07:48:47.968Z,101063.38
2022-10-26T07:52:11.226Z,101059.39
2022-10-26T07:55:34.454Z,101062.58
2022-10-26T07:58:57.882Z,101065.06
2022-10-26T08:02:21.349Z,101065.76
2022-10-26T08:05:46.851Z,101065.73
2022-10-26T08:09:10.577Z,101063.97
2022-10-26T08:12:33.893Z,101069.73
2022-10-26T08:16:01.513Z,101071.61
2022-10-26T08:19:24.889Z,101068.09
2022-10-26T08:22:48.505Z,101073.92
2022-10-26T08:26:12.131Z,101073.63
2022-10-26T08:29:35.422Z,101075.02
2022-10-26T08:33:00.799Z,101077.27
2022-10-26T08:36:25.818Z,101078.01
2022-10-26T08:39:51.916Z,101076.91
2022-10-26T08:43:23.894Z,101074.92
2022-10-26T08:46:53.151Z,101073.63
2022-10-26T08:50:24.615Z,101066.85
2022-10-26T08:53:54.053Z,101061.59
2022-10-26T08:57:25.202Z,101059.88
2022-10-26T09:00:51.755Z,101058.31
2022-10-26T09:04:15.181Z,101056.05
2022-10-26T09:07:49.107Z,101059.89
2022-10-26T09:11:25.282Z,101061.27
2022-10-26T09:15:00.588Z,101060.34
2022-10-26T09:18:34.928Z,101062.77
2022-10-26T09:22:03.862Z,101064.23
2022-10-26T09:25:35.846Z,101068.17
2022-10-26T09:29:03.017Z,101072.03
2022-10-26T09:32:34.664Z,101077.20
2022-10-26T09:36:01.180Z,101077.49
2022-10-26T09:39:40.329Z,101075.30
2022-10-26T09:43:10.597Z,101075.21
2022-10-26T09:46:42.558Z,101076.90
2022-10-26T09:50:20.450Z,101077.48
2022-10-26T09:53:43.915Z,101076.98
2022-10-26T09:57:09.302Z,101079.14
2022-10-26T10:04:19.827Z,101077.38
2022-10-26T10:07:43.176Z,101080.30
2022-10-26T10:11:10.496Z,101082.48
2022-10-26T10:14:40.049Z,101082.02
2022-10-26T10:18:03.533Z,101080.10
2022-10-26T10:21:36.426Z,101081.20
2022-10-26T10:25:01.796Z,101075.95
2022-10-26T10:28:27.184Z,101075.61
2022-10-26T10:31:56.769Z,101073.90
2022-10-26T10:35:23.581Z,101073.02
2022-10-26T10:38:49.427Z,101076.73
2022-10-26T10:42:18.650Z,101082.54
2022-10-26T10:45:47.943Z,101082.88
2022-10-26T10:49:21.219Z,101088.70
2022-10-26T10:52:45.117Z,101088.69
2022-10-26T10:56:28.605Z,101093.27
2022-10-26T11:00:02.897Z,101091.84
2022-10-26T11:03:49.827Z,101090.06
2022-10-26T11:07:18.013Z,101090.91
2022-10-26T11:10:45.904Z,101087.91
2022-10-26T11:14:14.084Z,101091.23
2022-10-26T11:17:45.417Z,101093.12
2022-10-26T11:21:19.029Z,101093.38
2022-10-26T11:24:47.255Z,101093.02
2022-10-26T11:28:18.001Z,101088.42
2022-10-26T11:31:49.315Z,101092.63
2022-10-26T11:35:18.225Z,101092.04
2022-10-26T11:38:56.754Z,101092.90
2022-10-26T11:42:26.078Z,101094.64
2022-10-26T11:46:02.734Z,101091.27
2022-10-26T11:49:32.489Z,101089.00
2022-10-26T11:53:00.901Z,101087.94
2022-10-26T11:56:31.027Z,101088.87
2022-10-26T11:59:59.825Z,101088.42
2022-10-26T12:03:27.328Z,101085.59
2022-10-26T12:06:54.152Z,101085.94
2022-10-26T12:10:26.836Z,101083.29
2022-10-26T12:13:54.805Z,101079.73
2022-10-26T12:17:26.035Z,101082.15
2022-10-26T12:20:55.445Z,101082.30
2022-10-26T12:24:29.411Z,101084.06
2022-10-26T12:27:59.714Z,101085.86
2022-10-26T12:31:43.134Z,101080.20
2022-10-26T12:35:31.508Z,101080.00
2022-10-26T12:39:00.287Z,101076.41
2022-10-26T12:42:30.482Z,101077.59
2022-10-26T12:46:40.718Z,101076.70
2022-10-26T12:50:24.183Z,101074.42
2022-10-26T12:53:52.527Z,101074.80
2022-10-26T12:57:23.758Z,101078.71
2022-10-26T13:01:11.959Z,101076.05
2022-10-26T13:05:07.761Z,101073.06
2022-10-26T13:08:41.508Z,101068.84
2022-10-26T13:12:06.055Z,101067.11
2022-10-26T13:15:33.891Z,101063.04
2022-10-26T13:18:59.157Z,101061.48
2022-10-26T13:22:23.865Z,101059.91
2022-10-26T13:26:02.793Z,101059.41
2022-10-26T13:29:31.807Z,101060.84
2022-10-26T13:32:57.651Z,101060.13
2022-10-26T13:36:30.920Z,101059.98
2022-10-26T13:39:56.317Z,101061.60
2022-10-26T13:43:23.202Z,101063.03
2022-10-26T13:46:51.579Z,101065.02
2022-10-26T13:50:19.069Z,101058.88
2022-10-26T13:53:49.353Z,101062.63
2022-10-26T13:57:18.977Z,101064.05
2022-10-26T14:00:59.413Z,101061.24
2022-10-26T14:04:27.675Z,101060.89
2022-10-26T14:07:56.770Z,101064.10
2022-10-26T14:11:25.311Z,101061.66
2022-10-26T14:14:50.372Z,101061.00
2022-10-26T14:18:19.095Z,101063.99
2022-10-26T14:21:49.160Z,101061.70
2022-10-26T14:25:26.751Z,101062.77
2022-10-26T14:29:01.231Z,101062.96
2022-10-26T14:32:28.379Z,101065.25
2022-10-26T14:35:53.703Z,101066.14
2022-10-26T14:39:23.640Z,101068.23
2022-10-26T14:42:49.762Z,101071.73
2022-10-26T14:46:16.410Z,101072.60
2022-10-26T14:49:46.307Z,101070.30
2022-10-26T14:53:15.944Z,101072.73
2022-10-26T14:56:41.182Z,101076.59
2022-10-26T15:00:15.188Z,101074.09
2022-10-26T15:03:38.884Z,101078.80
2022-10-26T15:07:09.490Z,101080.17
2022-10-26T15:10:51.188Z,101077.84
2022-10-26T15:14:17.473Z,101080.43
2022-10-26T15:17:43.555Z,101077.52
2022-10-26T15:21:23.015Z,101080.41
2022-10-26T15:24:52.266Z,101082.27
2022-10-26T15:28:22.952Z,101083.40
2022-10-26T15:31:46.249Z,101085.04
2022-10-26T15:35:24.017Z,101086.88
2022-10-26T15:38:48.221Z,101089.92
2022-10-26T15:42:14.411Z,101090.16
2022-10-26T15:45:47.217Z,101093.89
2022-10-26T15:49:18.581Z,101096.34
2022-10-26T15:52:44.165Z,101097.41
2022-10-26T15:56:14.983Z,101100.21
2022-10-26T15:59:38.206Z,101105.66
2022-10-26T16:03:03.229Z,101113.76
2022-10-26T16:06:29.045Z,101115.86
2022-10-26T16:09:53.083Z,101117.95
2022-10-26T16:13:16.972Z,101117.95
2022-10-26T16:16:40.679Z,101120.26
2022-10-26T16:20:08.782Z,101120.60
2022-10-26T16:23:33.199Z,101127.41
2022-10-26T16:26:56.629Z,101139.33
2022-10-26T16:30:20.799Z,101140.02
2022-10-26T16:33:44.632Z,101140.35
2022-10-26T16:37:08.119Z,101139.69
2022-10-26T16:40:31.353Z,101139.73
2022-10-26T16:43:56.675Z,101137.33
2022-10-26T16:50:44.161Z,101138.16
2022-10-26T16:54:07.847Z,101135.41
2022-10-26T16:57:31.964Z,101131.98
2022-10-26T17:00:55.224Z,101136.27
2022-10-26T17:04:19.307Z,101140.56
2022-10-26T17:07:42.790Z,101146.94
2022-10-26T17:11:08.188Z,101150.34
2022-10-26T17:14:32.111Z,101150.60
2022-10-26T17:17:55.841Z,101150.34
2022-10-26T17:21:27.708Z,101151.81
2022-10-26T17:24:51.881Z,101153.64
2022-10-26T17:28:16.379Z,101158.59
2022-10-26T17:31:40.971Z,101162.02
2022-10-26T17:35:07.840Z,101166.84
2022-10-26T17:38:33.284Z,101169.05
2022-10-26T17:41:57.549Z,101171.09
2022-10-26T17:45:22.385Z,101172.44
2022-10-26T17:48:47.536Z,101176.92
2022-10-26T17:52:12.151Z,101184.23
2022-10-26T17:55:36.858Z,101185.06
2022-10-26T17:59:02.756Z,101181.73
2022-10-26T18:02:28.154Z,101186.62
2022-10-26T18:05:53.224Z,101189.77
2022-10-26T18:09:18.972Z,101191.37
2022-10-26T18:12:44.636Z,101195.59
2022-10-26T18:16:13.243Z,101195.04
2022-10-26T18:19:37.935Z,101195.72
2022-10-26T18:23:03.571Z,101192.00
2022-10-26T18:26:30.122Z,101196.67
2022-10-26T18:29:54.815Z,101199.77
2022-10-26T18:33:20.475Z,101205.98
2022-10-26T18:36:45.418Z,101212.90
2022-10-26T18:40:13.165Z,101215.77
2022-10-26T18:43:43.376Z,101216.38
2022-10-26T18:47:08.104Z,101218.17
2022-10-26T18:50:32.403Z,101220.86
2022-10-26T18:53:58.583Z,101217.80
2022-10-26T18:57:26.354Z,101216.30
2022-10-26T19:00:51.427Z,101217.77
2022-10-26T19:04:15.848Z,101219.23
2022-10-26T19:07:40.695Z,101220.70
2022-10-26T19:11:06.334Z,101225.84
2022-10-26T19:14:30.480Z,101224.88
2022-10-26T19:17:56.037Z,101228.28
2022-10-26T19:21:21.254Z,101236.71
2022-10-26T19:24:46.828Z,101241.30
2022-10-26T19:28:10.124Z,101243.10
2022-10-26T19:31:35.818Z,101245.92
2022-10-26T19:34:59.402Z,101255.04
2022-10-26T19:38:23.367Z,101253.33
2022-10-26T19:41:46.957Z,101254.77
2022-10-26T19:45:12.153Z,101258.85
2022-10-26T19:48:36.007Z,101263.78
2022-10-26T19:52:00.845Z,101269.61
2022-10-26T19:55:24.182Z,101268.08
2022-10-26T19:58:49.920Z,101266.35
2022-10-26T20:02:13.218Z,101270.17
2022-10-26T20:05:41.037Z,101282.44
2022-10-26T20:09:04.522Z,101287.16
2022-10-26T20:12:28.187Z,101292.81
2022-10-26T20:15:52.637Z,101293.42
2022-10-26T20:19:15.918Z,101291.77
2022-10-26T20:22:39.744Z,101296.93
2022-10-26T20:26:03.335Z,101298.39
2022-10-26T20:29:26.803Z,101300.70
2022-10-26T20:32:50.062Z,101300.44
2022-10-26T20:36:13.683Z,101298.97
2022-10-26T20:39:38.502Z,101301.31
2022-10-26T20:43:02.920Z,101308.10
2022-10-26T20:46:28.148Z,101308.77
2022-10-26T20:49:52.760Z,101311.84
2022-10-26T20:53:24.880Z,101310.90
2022-10-26T20:56:49.676Z,101310.66
2022-10-26T21:00:15.565Z,101304.64
2022-10-26T21:03:39.040Z,101305.61
2022-10-26T21:07:02.463Z,101309.39
2022-10-26T21:10:25.786Z,101310.51
2022-10-26T21:13:49.949Z,101303.27
2022-10-26T21:17:13.385Z,101300.79
2022-10-26T21:20:36.579Z,101305.77
2022-10-26T21:23:59.782Z,101309.49
2022-10-26T21:27:23.100Z,101314.50
2022-10-26T21:30:46.623Z,101320.52
2022-10-26T21:34:10.167Z,101320.30
2022-10-26T21:37:33.424Z,101316.21
2022-10-26T21:41:04.249Z,101317.68
2022-10-26T21:44:42.785Z,101321.95
2022-10-26T21:48:06.686Z,101317.66
2022-10-26T21:51:30.231Z,101315.12
2022-10-26T21:54:53.855Z,101318.55
2022-10-26T21:58:17.800Z,101324.27
2022-10-26T22:01:41.315Z,101324.10
2022-10-26T22:05:06.276Z,101315.52
2022-10-26T22:08:29.854Z,101316.59
2022-10-26T22:11:53.190Z,101316.52
2022-10-26T22:15:17.193Z,101317.52
2022-10-26T22:18:43.211Z,101321.84
2022-10-26T22:22:06.407Z,101322.15
2022-10-26T22:25:29.644Z,101322.46
2022-10-26T22:28:55.490Z,101321.38
2022-10-26T22:32:18.879Z,101316.98
2022-10-26T22:35:42.533Z,101323.00
2022-10-26T22:39:06.333Z,101324.20
2022-10-26T22:42:29.945Z,101324.29
2022-10-26T22:46:00.691Z,101329.78
2022-10-26T22:49:24.816Z,101328.65
